createdAt,value
2019-01-21T00:01:21.892Z,93.50
2019-01-21T00:03:55.139Z,93.40
2019-01-21T00:06:28.379Z,93.50
2019-01-21T00:09:01.624Z,93.10
2019-01-21T00:11:34.864Z,93.60
2019-01-21T00:14:08.108Z,93.50
2019-01-21T00:16:41.334Z,94.20
2019-01-21T00:19:14.577Z,93.90
2019-01-21T00:21:47.832Z,94.20
2019-01-21T00:24:21.090Z,94.10
2019-01-21T00:26:54.309Z,94.20
2019-01-21T00:29:27.671Z,94.00
2019-01-21T00:32:00.896Z,94.10
2019-01-21T00:34:34.155Z,93.50
2019-01-21T00:37:07.367Z,93.40
2019-01-21T00:39:40.622Z,93.30
2019-01-21T00:42:13.848Z,93.00
2019-01-21T00:44:47.096Z,93.40
2019-01-21T00:47:20.335Z,93.10
2019-01-21T00:49:53.617Z,93.20
2019-01-21T00:52:26.881Z,93.30
2019-01-21T00:55:00.196Z,93.10
2019-01-21T00:57:33.449Z,93.30
2019-01-21T01:00:18.658Z,93.70
2019-01-21T01:02:51.891Z,93.50
2019-01-21T01:05:25.124Z,93.50
2019-01-21T01:07:58.353Z,93.30
2019-01-21T01:10:31.616Z,93.20
2019-01-21T01:13:04.847Z,93.60
2019-01-21T01:15:38.091Z,94.50
2019-01-21T01:18:11.312Z,94.30
2019-01-21T01:20:44.552Z,94.50
2019-01-21T01:23:17.797Z,94.90
2019-01-21T01:25:51.043Z,95.70
2019-01-21T01:28:24.275Z,95.80
2019-01-21T01:30:57.515Z,95.90
2019-01-21T01:33:30.744Z,95.30
2019-01-21T01:36:03.988Z,95.10
2019-01-21T01:38:37.228Z,94.90
2019-01-21T01:41:10.455Z,95.30
2019-01-21T01:43:43.692Z,95.00
2019-01-21T01:46:16.956Z,95.00
2019-01-21T01:48:50.185Z,94.90
2019-01-21T01:51:23.425Z,94.60
2019-01-21T01:53:56.724Z,95.10
2019-01-21T01:56:30.009Z,94.60
2019-01-21T01:59:03.233Z,94.50
2019-01-21T02:01:36.460Z,94.80
2019-01-21T02:04:09.699Z,95.00
2019-01-21T02:06:43.002Z,95.00
2019-01-21T02:09:16.227Z,96.00
2019-01-21T02:11:49.473Z,96.10
2019-01-21T02:14:22.790Z,96.00
2019-01-21T02:16:57.254Z,95.60
2019-01-21T02:19:31.611Z,95.40
2019-01-21T02:22:05.092Z,95.60
2019-01-21T02:24:39.062Z,95.80
2019-01-21T02:27:13.228Z,95.40
2019-01-21T02:29:49.779Z,95.00
2019-01-21T02:32:44.201Z,95.70
2019-01-21T02:35:20.717Z,96.10
2019-01-21T02:38:03.194Z,95.40
2019-01-21T02:40:39.675Z,95.10
2019-01-21T02:43:33.923Z,95.40
2019-01-21T02:46:19.014Z,96.10
2019-01-21T02:49:04.303Z,95.80
2019-01-21T02:51:43.555Z,95.80
2019-01-21T02:54:31.720Z,95.40
2019-01-21T02:57:29.183Z,95.40
2019-01-21T03:00:17.380Z,95.40
2019-01-21T03:03:08.757Z,95.10
2019-01-21T03:05:42.919Z,94.90
2019-01-21T03:08:28.256Z,94.80
2019-01-21T03:11:22.357Z,95.10
2019-01-21T03:14:18.189Z,95.10
2019-01-21T03:17:03.567Z,94.90
2019-01-21T03:19:42.716Z,94.90
2019-01-21T03:22:30.860Z,95.40
2019-01-21T03:25:26.598Z,95.80
2019-01-21T03:28:19.803Z,96.00
2019-01-21T03:31:24.931Z,96.20
2019-01-21T03:34:19.524Z,96.30
2019-01-21T03:36:56.097Z,95.60
2019-01-21T03:39:57.960Z,95.90
2019-01-21T03:42:52.406Z,95.70
2019-01-21T03:45:31.807Z,95.40
2019-01-21T03:48:16.467Z,95.70
2019-01-21T03:51:01.351Z,95.60
2019-01-21T03:53:46.365Z,95.70
2019-01-21T03:56:22.868Z,95.80
2019-01-21T03:59:05.300Z,95.90
2019-01-21T04:02:04.491Z,96.60
2019-01-21T04:05:00.110Z,97.30
2019-01-21T04:07:36.650Z,96.70
2019-01-21T04:10:42.498Z,96.50
2019-01-21T04:13:18.988Z,96.70
2019-01-21T04:16:12.826Z,96.10
2019-01-21T04:19:01.016Z,96.20
2019-01-21T04:21:37.539Z,96.30
2019-01-21T04:24:31.744Z,95.90
2019-01-21T04:27:13.528Z,96.10
2019-01-21T04:30:09.151Z,96.40
2019-01-21T04:33:06.012Z,96.50
2019-01-21T04:35:51.501Z,96.70
2019-01-21T04:38:36.615Z,96.50
2019-01-21T04:41:19.055Z,96.50
2019-01-21T04:44:04.379Z,96.40
2019-01-21T04:46:46.774Z,95.90
2019-01-21T04:49:54.586Z,96.20
2019-01-21T04:52:36.637Z,96.10
2019-01-21T04:55:15.786Z,96.20
2019-01-21T04:58:08.522Z,96.50
2019-01-21T05:01:08.752Z,96.30
2019-01-21T05:03:50.730Z,97.10
2019-01-21T05:06:35.368Z,98.00
2019-01-21T05:09:17.332Z,97.20
2019-01-21T05:12:11.706Z,96.90
2019-01-21T05:15:02.928Z,97.50
2019-01-21T05:17:42.771Z,97.70
2019-01-21T05:20:35.833Z,97.90
2019-01-21T05:23:32.972Z,97.50
2019-01-21T05:26:30.378Z,96.80
2019-01-21T05:29:39.928Z,96.50
2019-01-21T05:32:19.495Z,96.10
2019-01-21T05:34:55.982Z,96.60
2019-01-21T05:37:54.629Z,96.30
2019-01-21T05:40:49.112Z,96.10
2019-01-21T05:43:34.362Z,96.60
2019-01-21T05:46:43.538Z,97.10
2019-01-21T05:49:40.454Z,97.10
2019-01-21T05:52:28.824Z,97.10
2019-01-21T05:55:20.578Z,96.60
2019-01-21T05:57:59.572Z,96.50
2019-01-21T06:00:38.720Z,96.60
2019-01-21T06:03:33.076Z,96.70
2019-01-21T06:06:09.587Z,96.60
2019-01-21T06:08:51.850Z,96.90
2019-01-21T06:11:40.360Z,96.50
2019-01-21T06:14:25.617Z,96.30
2019-01-21T06:17:24.327Z,97.00
2019-01-21T06:20:24.474Z,96.90
2019-01-21T06:23:06.733Z,96.70
2019-01-21T06:25:52.212Z,96.30
2019-01-21T06:28:31.658Z,95.90
2019-01-21T06:31:14.370Z,95.80
2019-01-21T06:34:02.806Z,96.20
2019-01-21T06:36:47.785Z,96.30
2019-01-21T06:39:57.173Z,96.00
2019-01-21T06:42:50.365Z,96.20
2019-01-21T06:45:41.712Z,96.40
2019-01-21T06:48:33.166Z,96.40
2019-01-21T06:51:18.382Z,96.70
2019-01-21T06:54:06.162Z,96.70
2019-01-21T06:56:48.664Z,96.30
2019-01-21T06:59:50.545Z,96.50
2019-01-21T07:02:41.917Z,96.20
2019-01-21T07:05:34.563Z,96.30
2019-01-21T07:08:27.559Z,96.10
2019-01-21T07:11:25.251Z,96.00
2019-01-21T07:14:02.410Z,96.70
2019-01-21T07:16:56.259Z,97.30
2019-01-21T07:19:40.007Z,96.90
2019-01-21T07:22:22.193Z,97.40
2019-01-21T07:25:13.157Z,96.60
2019-01-21T07:28:05.916Z,96.80
2019-01-21T07:30:51.275Z,97.10
2019-01-21T07:33:49.058Z,96.50
2019-01-21T07:36:41.783Z,96.70
2019-01-21T07:39:24.043Z,97.10
2019-01-21T07:42:25.741Z,97.10
2019-01-21T07:45:13.935Z,97.60
2019-01-21T07:48:05.306Z,98.30
2019-01-21T07:50:50.735Z,98.40
2019-01-21T07:53:43.424Z,98.40
2019-01-21T07:56:42.043Z,97.90
2019-01-21T07:59:39.301Z,98.00
2019-01-21T08:02:35.585Z,98.00
2019-01-21T08:05:17.643Z,97.90
2019-01-21T08:07:56.820Z,98.10
2019-01-21T08:11:05.119Z,98.00
2019-01-21T08:13:58.600Z,98.20
2019-01-21T08:16:48.196Z,97.90
2019-01-21T08:19:39.880Z,98.00
2019-01-21T08:22:16.406Z,97.70
2019-01-21T08:25:07.799Z,97.40
2019-01-21T08:27:44.386Z,97.50
2019-01-21T08:30:20.891Z,97.20
2019-01-21T08:32:57.460Z,96.70
2019-01-21T08:35:36.657Z,96.70
2019-01-21T08:38:15.890Z,97.20
2019-01-21T08:41:04.297Z,96.90
2019-01-21T08:43:55.596Z,97.00
2019-01-21T08:46:32.583Z,97.50
2019-01-21T08:49:09.131Z,97.20
2019-01-21T08:51:57.440Z,97.10
2019-01-21T08:54:39.891Z,97.00
2019-01-21T08:57:22.176Z,96.70
2019-01-21T09:00:01.141Z,96.80
2019-01-21T09:02:54.244Z,96.70
2019-01-21T09:05:45.920Z,96.90
2019-01-21T09:08:37.582Z,96.70
2019-01-21T09:11:29.519Z,96.90
2019-01-21T09:14:17.826Z,96.80
2019-01-21T09:17:03.291Z,96.40
2019-01-21T09:19:42.711Z,96.60
2019-01-21T09:22:34.038Z,96.50
2019-01-21T09:25:32.739Z,96.30
2019-01-21T09:28:15.083Z,96.50
2019-01-21T09:30:51.558Z,96.30
2019-01-21T09:33:43.095Z,96.30
2019-01-21T09:36:37.609Z,96.30
2019-01-21T09:39:16.948Z,95.90
2019-01-21T09:42:14.490Z,96.10
2019-01-21T09:44:54.064Z,96.60
2019-01-21T09:47:26.423Z,96.10
2019-01-21T09:49:59.682Z,96.00
2019-01-21T09:52:33.012Z,96.30
2019-01-21T09:55:07.141Z,95.90
2019-01-21T09:57:40.387Z,95.70
2019-01-21T10:00:16.537Z,95.70
2019-01-21T10:02:50.536Z,95.30
2019-01-21T10:05:23.779Z,94.80
2019-01-21T10:08:02.983Z,94.40
2019-01-21T10:10:42.303Z,93.80
2019-01-21T10:13:46.623Z,94.30
2019-01-21T10:16:37.779Z,94.00
2019-01-21T10:19:17.003Z,91.90
2019-01-21T10:22:15.598Z,82.40
2019-01-21T10:24:52.081Z,71.40
2019-01-21T10:27:34.615Z,62.90
2019-01-21T10:30:17.057Z,56.30
2019-01-21T10:33:10.074Z,52.30
2019-01-21T10:36:02.751Z,49.00
2019-01-21T10:39:12.080Z,44.90
2019-01-21T10:41:57.404Z,44.80
2019-01-21T10:44:33.898Z,43.80
2019-01-21T10:47:40.505Z,42.70
2019-01-21T10:50:37.640Z,40.30
2019-01-21T10:53:22.916Z,39.70
2019-01-21T10:56:11.155Z,35.90
2019-01-21T10:58:50.531Z,37.10
2019-01-21T11:01:45.021Z,37.90
2019-01-21T11:04:37.772Z,36.00
2019-01-21T11:07:28.930Z,34.70
2019-01-21T11:10:07.976Z,33.80
2019-01-21T11:12:55.679Z,30.80
2019-01-21T11:15:32.279Z,30.00
2019-01-21T11:18:08.856Z,29.90
2019-01-21T11:20:45.418Z,29.80
2019-01-21T11:23:24.696Z,30.30
2019-01-21T11:26:01.196Z,30.60
2019-01-21T11:28:49.456Z,29.80
2019-01-21T11:31:37.678Z,28.10
2019-01-21T11:34:22.629Z,27.20
2019-01-21T11:37:07.210Z,28.20
2019-01-21T11:39:46.557Z,27.10
2019-01-21T11:42:46.280Z,27.70
2019-01-21T11:45:37.747Z,26.60
2019-01-21T11:48:14.231Z,25.70
2019-01-21T11:51:23.429Z,26.80
2019-01-21T11:54:27.651Z,31.10
2019-01-21T11:57:07.085Z,30.40
2019-01-21T11:59:55.305Z,28.00
2019-01-21T12:02:34.469Z,28.00
2019-01-21T12:05:29.076Z,28.10
2019-01-21T12:08:11.378Z,26.20
2019-01-21T12:10:59.534Z,25.70
2019-01-21T12:13:58.486Z,26.00
2019-01-21T12:16:52.720Z,27.80
2019-01-21T12:19:54.627Z,29.70
2019-01-21T12:22:56.402Z,30.60
2019-01-21T12:25:47.638Z,30.60
2019-01-21T12:28:24.157Z,33.60
2019-01-21T12:31:03.101Z,35.90
2019-01-21T12:33:51.404Z,35.10
2019-01-21T12:36:30.616Z,34.80
2019-01-21T12:39:10.476Z,36.60
2019-01-21T12:42:12.702Z,37.00
2019-01-21T12:44:54.840Z,36.90
2019-01-21T12:47:49.475Z,38.60
2019-01-21T12:50:41.009Z,40.10
2019-01-21T12:53:29.467Z,39.30
2019-01-21T12:56:17.841Z,38.10
2019-01-21T12:59:05.964Z,38.40
2019-01-21T13:01:45.067Z,38.30
2019-01-21T13:04:21.580Z,35.40
2019-01-21T13:07:31.025Z,36.20
2019-01-21T13:10:13.250Z,39.30
2019-01-21T13:13:07.176Z,39.30
2019-01-21T13:15:52.606Z,38.20
2019-01-21T13:18:51.667Z,39.10
